createdAt,value
2023-03-11T00:02:42.921Z,76.24
2023-03-11T00:07:45.746Z,76.99
2023-03-11T00:12:48.396Z,78.25
2023-03-11T00:17:51.468Z,77.53
2023-03-11T00:22:55.028Z,77.95
2023-03-11T00:27:58.599Z,77.52
2023-03-11T00:33:01.414Z,77.41
2023-03-11T00:38:06.572Z,78.06
2023-03-11T00:43:09.246Z,76.88
2023-03-11T00:48:13.516Z,76.43
2023-03-11T00:53:16.259Z,76.93
2023-03-11T00:58:19.227Z,76.09
2023-03-11T01:03:26.185Z,76.99
2023-03-11T01:08:29.828Z,77.01
2023-03-11T01:13:33.624Z,77.54
2023-03-11T01:18:36.160Z,78.96
2023-03-11T01:23:40.554Z,79.34
2023-03-11T01:28:43.453Z,79.13
2023-03-11T01:33:46.050Z,77.77
2023-03-11T01:38:48.772Z,78.53
2023-03-11T01:43:55.210Z,77.92
2023-03-11T01:49:04.219Z,78.22
2023-03-11T01:54:21.180Z,78.91
2023-03-11T01:59:29.800Z,78.43
2023-03-11T02:04:35.881Z,78.16
2023-03-11T02:09:39.307Z,78.23
2023-03-11T02:14:46.368Z,77.76
2023-03-11T02:25:40.674Z,77.35
2023-03-11T02:30:45.002Z,77.12
2023-03-11T02:35:48.064Z,77.38
2023-03-11T02:40:55.795Z,78.12
2023-03-11T02:46:00.735Z,78.10
2023-03-11T02:51:04.132Z,77.24
2023-03-11T02:56:07.174Z,78.17
2023-03-11T03:01:10.802Z,78.08
2023-03-11T03:06:16.077Z,77.38
2023-03-11T03:11:18.955Z,78.19
2023-03-11T03:16:22.039Z,78.82
2023-03-11T03:21:24.675Z,77.63
2023-03-11T03:26:28.440Z,77.83
2023-03-11T03:31:32.674Z,77.71
2023-03-11T03:36:36.844Z,78.26
2023-03-11T03:41:40.877Z,78.90
2023-03-11T03:46:44.082Z,79.74
2023-03-11T03:51:47.857Z,78.43
2023-03-11T03:57:00.131Z,78.03
2023-03-11T04:02:04.686Z,77.60
2023-03-11T04:07:07.847Z,76.92
2023-03-11T04:12:15.595Z,77.29
2023-03-11T04:17:18.951Z,77.44
2023-03-11T04:22:22.315Z,76.63
2023-03-11T04:27:25.040Z,77.00
2023-03-11T04:32:28.532Z,76.71
2023-03-11T04:37:31.280Z,76.41
2023-03-11T04:42:34.112Z,76.53
2023-03-11T04:47:37.307Z,77.18
2023-03-11T04:52:41.274Z,77.02
2023-03-11T04:57:44.385Z,77.04
2023-03-11T05:02:49.226Z,75.94
2023-03-11T05:07:51.932Z,76.38
2023-03-11T05:12:54.828Z,75.76
2023-03-11T05:18:00.943Z,75.81
2023-03-11T05:23:04.788Z,75.95
2023-03-11T05:28:10.092Z,76.70
2023-03-11T05:33:17.735Z,76.05
2023-03-11T05:38:21.382Z,76.26
2023-03-11T05:43:24.604Z,76.14
2023-03-11T05:48:30.398Z,75.59
2023-03-11T05:53:33.300Z,75.69
2023-03-11T05:58:35.997Z,75.40
2023-03-11T06:03:40.039Z,75.18
2023-03-11T06:08:46.189Z,74.87
2023-03-11T06:13:49.179Z,75.04
2023-03-11T06:18:52.419Z,75.27
2023-03-11T06:23:56.436Z,74.28
2023-03-11T06:29:00.905Z,74.99
2023-03-11T06:34:05.550Z,73.81
2023-03-11T06:39:11.716Z,73.85
2023-03-11T06:44:14.573Z,74.51
2023-03-11T06:49:18.043Z,74.15
2023-03-11T06:54:20.967Z,73.51
2023-03-11T06:59:23.772Z,73.67
2023-03-11T07:04:27.936Z,73.15
2023-03-11T07:09:30.753Z,73.20
2023-03-11T07:14:34.060Z,72.63
2023-03-11T07:19:37.345Z,72.38
2023-03-11T07:24:40.984Z,72.15
2023-03-11T07:29:43.647Z,71.68
2023-03-11T07:34:46.378Z,72.04
2023-03-11T07:39:48.952Z,71.58
2023-03-11T07:44:52.053Z,71.83
2023-03-11T07:49:56.948Z,70.82
2023-03-11T07:55:00.034Z,70.58
2023-03-11T08:00:02.913Z,71.19
2023-03-11T08:05:25.217Z,70.18
2023-03-11T08:10:28.032Z,69.88
2023-03-11T08:15:32.113Z,70.09
2023-03-11T08:20:34.930Z,68.25
2023-03-11T08:25:40.145Z,68.52
2023-03-11T08:30:43.145Z,68.22
2023-03-11T08:35:45.903Z,69.14
2023-03-11T08:40:48.883Z,69.23
2023-03-11T08:45:51.477Z,69.14
2023-03-11T08:50:54.875Z,68.48
2023-03-11T08:55:58.499Z,68.45
2023-03-11T09:01:01.387Z,68.47
2023-03-11T09:06:06.777Z,67.02
2023-03-11T09:11:10.654Z,66.07
2023-03-11T09:16:17.226Z,66.41
2023-03-11T09:21:20.312Z,65.71
2023-03-11T09:26:23.127Z,64.62
2023-03-11T09:31:25.768Z,66.55
2023-03-11T09:36:28.509Z,65.86
2023-03-11T09:41:57.396Z,66.14
2023-03-11T09:52:53.384Z,65.14
2023-03-11T09:58:00.187Z,65.54
2023-03-11T10:03:03.924Z,65.28
2023-03-11T10:08:28.343Z,64.55
2023-03-11T10:35:04.763Z,64.53
2023-03-11T10:40:25.213Z,65.06
2023-03-11T10:45:33.559Z,64.18
2023-03-11T10:50:50.117Z,64.79
2023-03-11T10:55:55.271Z,65.91
2023-03-11T11:01:14.706Z,64.99
2023-03-11T11:11:36.726Z,61.96
2023-03-11T11:16:41.063Z,61.11
2023-03-11T11:21:49.248Z,60.95
2023-03-11T11:32:26.316Z,59.91
2023-03-11T11:37:32.294Z,58.87
2023-03-11T11:42:36.181Z,57.62
2023-03-11T11:47:42.005Z,55.73
2023-03-11T11:52:51.587Z,54.16
2023-03-11T11:57:54.294Z,57.64
2023-03-11T12:03:26.187Z,58.54
2023-03-11T12:08:42.974Z,58.65
2023-03-11T12:19:44.872Z,60.01
2023-03-11T12:30:27.455Z,61.52
2023-03-11T12:35:32.957Z,61.13
2023-03-11T12:46:00.368Z,61.74
2023-03-11T12:51:03.519Z,62.13
2023-03-11T12:56:21.945Z,62.02
2023-03-11T13:12:51.854Z,60.17
2023-03-11T13:44:13.971Z,63.45
2023-03-11T13:49:40.606Z,63.62
2023-03-11T13:54:49.312Z,63.84
2023-03-11T13:59:54.134Z,63.50
2023-03-11T14:05:04.801Z,64.17
2023-03-11T14:15:27.524Z,64.72
2023-03-11T14:20:30.507Z,65.14
2023-03-11T14:25:36.496Z,65.48
2023-03-11T14:30:39.164Z,65.83
2023-03-11T14:35:42.094Z,65.92
2023-03-11T14:40:44.781Z,66.67
2023-03-11T14:45:49.223Z,67.13
2023-03-11T14:50:54.114Z,66.90
2023-03-11T14:56:00.402Z,67.29
2023-03-11T15:06:17.887Z,67.97
2023-03-11T15:11:25.365Z,67.87
2023-03-11T15:16:37.544Z,68.26
2023-03-11T15:21:47.190Z,68.46
2023-03-11T15:27:07.949Z,68.39
2023-03-11T15:32:46.846Z,69.06
2023-03-11T15:38:11.100Z,69.42
2023-03-11T15:48:29.073Z,69.69
2023-03-11T15:53:31.872Z,69.81
2023-03-11T15:58:34.592Z,69.98
2023-03-11T16:03:39.218Z,69.75
2023-03-11T16:14:43.022Z,70.30
2023-03-11T16:19:49.226Z,70.80
2023-03-11T16:24:54.072Z,70.96
2023-03-11T16:29:56.910Z,70.40
2023-03-11T16:34:59.634Z,70.81
2023-03-11T16:40:02.543Z,71.41
2023-03-11T16:45:06.888Z,71.05
2023-03-11T16:50:11.591Z,71.16
2023-03-11T16:55:14.338Z,71.52
2023-03-11T17:00:18.314Z,71.60
2023-03-11T17:05:21.725Z,72.20
2023-03-11T17:10:25.581Z,72.70
2023-03-11T17:15:28.434Z,71.87
2023-03-11T17:20:31.754Z,73.12
2023-03-11T17:25:34.517Z,72.59
2023-03-11T17:30:43.204Z,73.40
2023-03-11T17:35:47.210Z,73.20
2023-03-11T17:40:49.871Z,73.28
2023-03-11T17:45:53.991Z,73.19
2023-03-11T17:50:59.780Z,74.29
2023-03-11T17:56:03.578Z,74.27
2023-03-11T18:01:13.561Z,74.01
2023-03-11T18:06:19.289Z,73.90
2023-03-11T18:11:25.274Z,74.48
2023-03-11T18:16:32.124Z,74.76
2023-03-11T18:21:34.852Z,74.97
2023-03-11T18:26:37.821Z,74.48
2023-03-11T18:31:41.575Z,74.75
2023-03-11T18:36:44.282Z,74.95
2023-03-11T18:41:46.889Z,74.79
2023-03-11T18:46:50.803Z,74.95
2023-03-11T18:51:53.434Z,74.78
2023-03-11T18:56:56.346Z,75.63
2023-03-11T19:01:58.919Z,75.21
2023-03-11T19:07:01.538Z,75.95
2023-03-11T19:12:04.350Z,74.13
2023-03-11T19:17:07.000Z,75.23
2023-03-11T19:22:09.632Z,74.49
2023-03-11T19:27:12.380Z,74.05
2023-03-11T19:32:15.020Z,74.27
2023-03-11T19:37:17.626Z,73.76
2023-03-11T19:42:21.119Z,74.16
2023-03-11T19:47:24.181Z,73.53
2023-03-11T19:52:26.981Z,72.91
2023-03-11T19:57:29.763Z,73.06
2023-03-11T20:02:32.444Z,73.22
2023-03-11T20:07:34.989Z,73.05
2023-03-11T20:12:37.625Z,72.37
2023-03-11T20:17:40.220Z,72.19
2023-03-11T20:22:42.760Z,72.31
2023-03-11T20:27:45.397Z,72.88
2023-03-11T20:32:49.092Z,72.11
2023-03-11T20:37:51.865Z,72.46
2023-03-11T20:42:54.709Z,72.24
2023-03-11T20:47:57.500Z,72.10
2023-03-11T20:53:00.024Z,72.16
2023-03-11T20:58:02.817Z,71.66
2023-03-11T21:03:05.576Z,71.90
2023-03-11T21:08:08.328Z,71.80
2023-03-11T21:13:11.014Z,72.36
2023-03-11T21:18:13.941Z,71.82
2023-03-11T21:23:19.020Z,72.94
2023-03-11T21:28:21.666Z,72.57
2023-03-11T21:33:24.569Z,72.44
2023-03-11T21:38:29.088Z,71.82
2023-03-11T21:43:31.925Z,72.09
2023-03-11T21:48:35.133Z,72.24
2023-03-11T21:53:37.857Z,72.74
2023-03-11T21:58:41.098Z,72.98
2023-03-11T22:03:44.170Z,72.35
2023-03-11T22:08:47.551Z,71.58
2023-03-11T22:13:54.219Z,71.07
2023-03-11T22:18:57.792Z,71.56
2023-03-11T22:24:12.011Z,71.45
2023-03-11T22:29:16.848Z,71.71
2023-03-11T22:34:23.082Z,71.73
2023-03-11T22:39:27.723Z,72.19
2023-03-11T22:44:34.397Z,72.14
2023-03-11T22:49:40.688Z,72.52
2023-03-11T22:54:44.777Z,72.46
2023-03-11T22:59:50.006Z,73.00
2023-03-11T23:04:54.038Z,73.35
2023-03-11T23:09:57.720Z,73.94
2023-03-11T23:15:15.693Z,73.97
2023-03-11T23:20:18.393Z,74.40
2023-03-11T23:25:21.156Z,74.82
2023-03-11T23:30:24.125Z,75.60
2023-03-11T23:35:26.802Z,75.98
2023-03-11T23:40:29.535Z,76.79
2023-03-11T23:45:32.089Z,76.47
2023-03-11T23:50:34.622Z,76.16
2023-03-11T23:55:38.396Z,76.77
